Time;durP1;ratioP1;P1;durP2;ratioP2;P2;SDS_P1;SDS_P2;PMS_P1;PMS_P2;Temp;Humidity;BMP_temperature;BMP_pressure;BME280_temperature;BME280_humidity;BME280_pressure;Samples;Min_cycle;Max_cycle;Signal;HPM_P1;HPM_P2
2023/12/04 00:00:26;;;;;;;16.77;7.78;;;2.00;97.00;;;;;;6109029;23;20504;-85
2023/12/04 00:02:52;;;;;;;15.80;7.57;;;1.90;96.80;;;;;;6110020;23;20021;-81
2023/12/04 00:05:17;;;;;;;17.67;8.30;;;1.90;96.80;;;;;;6134289;23;20065;-79
2023/12/04 00:07:43;;;;;;;19.75;9.18;;;1.90;96.70;;;;;;6107126;23;20092;-81
2023/12/04 00:10:09;;;;;;;18.15;9.18;;;1.90;96.80;;;;;;6134545;23;20006;-79
2023/12/04 00:12:34;;;;;;;17.35;8.18;;;1.80;96.80;;;;;;6134283;23;20037;-86
2023/12/04 00:15:00;;;;;;;16.77;7.80;;;1.90;96.80;;;;;;6106047;23;20002;-78
2023/12/04 00:17:25;;;;;;;16.70;8.82;;;1.80;96.80;;;;;;6105704;23;20036;-83
2023/12/04 00:19:51;;;;;;;20.17;8.82;;;1.80;96.80;;;;;;6105951;23;20336;-79
2023/12/04 00:22:16;;;;;;;18.52;8.70;;;1.90;96.80;;;;;;6105277;23;20002;-80
2023/12/04 00:24:42;;;;;;;21.35;8.75;;;1.80;96.80;;;;;;6131364;23;20013;-83
2023/12/04 00:27:07;;;;;;;20.75;9.23;;;1.80;96.80;;;;;;6105759;23;20013;-78
2023/12/04 00:29:33;;;;;;;16.13;7.28;;;1.80;96.80;;;;;;6103135;23;20012;-81
2023/12/04 00:31:59;;;;;;;16.60;8.27;;;1.80;96.70;;;;;;6103691;23;20044;-79
2023/12/04 00:34:24;;;;;;;21.85;9.43;;;1.80;96.70;;;;;;6130381;23;20053;-80
2023/12/04 00:36:50;;;;;;;21.08;9.70;;;1.80;96.70;;;;;;6104644;23;20415;-81
2023/12/04 00:39:16;;;;;;;17.65;8.30;;;1.80;96.70;;;;;;6105416;23;20008;-79
2023/12/04 00:41:41;;;;;;;15.65;7.57;;;1.80;96.70;;;;;;6130997;23;20013;-80
2023/12/04 00:44:07;;;;;;;15.52;7.45;;;1.80;96.70;;;;;;6102728;23;20010;-80
2023/12/04 00:46:32;;;;;;;17.63;7.88;;;1.90;96.60;;;;;;6101962;23;20022;-79
2023/12/04 00:48:58;;;;;;;16.08;8.13;;;1.90;96.50;;;;;;6103101;23;20012;-81
2023/12/04 00:51:23;;;;;;;18.65;8.88;;;1.90;96.50;;;;;;6131149;23;20002;-81
2023/12/04 00:53:49;;;;;;;15.07;7.03;;;1.90;96.50;;;;;;6134002;23;20005;-80
2023/12/04 00:56:15;;;;;;;15.82;7.55;;;2.00;96.50;;;;;;6133214;23;20045;-82
2023/12/04 00:58:40;;;;;;;13.52;6.40;;;1.90;96.40;;;;;;6106372;23;20093;-83
2023/12/04 01:01:06;;;;;;;13.82;6.30;;;1.90;96.40;;;;;;6105436;23;20002;-79
2023/12/04 01:03:33;;;;;;;15.45;6.43;;;2.00;96.40;;;;;;6104781;23;19998;-79
2023/12/04 01:05:59;;;;;;;14.27;6.60;;;2.00;96.20;;;;;;6103374;23;20014;-80
2023/12/04 01:08:24;;;;;;;12.98;6.15;;;2.00;96.50;;;;;;6102760;23;20006;-80
2023/12/04 01:10:50;;;;;;;13.65;6.38;;;2.00;96.20;;;;;;6103452;23;20025;-79
2023/12/04 01:13:16;;;;;;;14.65;5.93;;;2.00;96.20;;;;;;6101945;23;20009;-81
2023/12/04 01:15:42;;;;;;;15.25;7.05;;;2.00;96.20;;;;;;6104294;23;20412;-80
2023/12/04 01:18:08;;;;;;;15.38;7.25;;;1.90;96.20;;;;;;6105753;23;20458;-81
2023/12/04 01:20:34;;;;;;;14.77;7.30;;;2.00;96.20;;;;;;6131256;23;20002;-81
2023/12/04 01:22:59;;;;;;;14.13;6.57;;;2.00;96.20;;;;;;6131744;23;20063;-80
2023/12/04 01:25:25;;;;;;;14.43;6.85;;;2.00;96.10;;;;;;6103547;23;20040;-79
2023/12/04 01:27:51;;;;;;;12.98;6.40;;;2.00;96.10;;;;;;6102635;23;20005;-78
2023/12/04 01:30:16;;;;;;;11.93;6.03;;;2.00;96.10;;;;;;6104464;23;20455;-80
2023/12/04 01:32:42;;;;;;;11.23;5.82;;;2.00;96.10;;;;;;6103534;23;20010;-81
2023/12/04 01:35:08;;;;;;;11.65;5.57;;;2.00;96.10;;;;;;6128726;23;20002;-79
2023/12/04 01:37:33;;;;;;;12.88;6.35;;;2.00;95.90;;;;;;6125160;23;20005;-78
2023/12/04 01:39:59;;;;;;;16.65;8.02;;;2.00;95.90;;;;;;6126119;23;20058;-79
2023/12/04 01:42:24;;;;;;;16.50;7.57;;;1.90;95.80;;;;;;6124756;23;20006;-81
2023/12/04 01:44:50;;;;;;;15.82;7.47;;;1.90;95.90;;;;;;6103709;23;20002;-80
2023/12/04 01:47:17;;;;;;;13.85;6.88;;;2.00;96.00;;;;;;6132717;23;20009;-84
2023/12/04 01:49:43;;;;;;;13.25;6.35;;;1.90;95.90;;;;;;6133100;23;20363;-80
2023/12/04 01:52:09;;;;;;;16.35;7.97;;;1.90;96.00;;;;;;6134754;23;20001;-81
2023/12/04 01:54:36;;;;;;;19.08;8.10;;;1.90;96.00;;;;;;6132948;23;20008;-79
2023/12/04 01:57:03;;;;;;;17.23;7.47;;;1.90;96.00;;;;;;6135628;23;20399;-82
2023/12/04 01:59:29;;;;;;;14.32;7.07;;;1.90;95.90;;;;;;6134297;23;20078;-81
2023/12/04 02:01:55;;;;;;;15.93;7.07;;;1.90;96.10;;;;;;6134378;23;20388;-82
2023/12/04 02:04:21;;;;;;;12.82;6.03;;;1.90;96.00;;;;;;6134645;23;20037;-79
2023/12/04 02:06:47;;;;;;;15.23;7.13;;;1.90;96.00;;;;;;6108295;23;20017;-81
2023/12/04 02:09:16;;;;;;;14.85;7.32;;;1.90;95.90;;;;;;6108511;23;20006;-80
2023/12/04 02:11:41;;;;;;;17.85;8.77;;;1.80;95.80;;;;;;6134134;23;20054;-80
2023/12/04 02:14:07;;;;;;;17.20;7.80;;;1.80;95.80;;;;;;6108594;23;20455;-83
2023/12/04 02:16:39;;;;;;;13.77;6.88;;;1.80;95.90;;;;;;6131613;23;19998;-80
2023/12/04 02:19:07;;;;;;;16.65;7.15;;;1.80;96.00;;;;;;6132608;23;20467;-79
2023/12/04 02:21:32;;;;;;;11.40;5.75;;;1.80;96.00;;;;;;6131406;23;20018;-79
2023/12/04 02:23:58;;;;;;;13.75;7.40;;;1.80;96.00;;;;;;6108863;23;20002;-79
2023/12/04 02:26:30;;;;;;;17.45;8.15;;;1.80;95.90;;;;;;6107193;23;20001;-81
2023/12/04 02:29:00;;;;;;;14.77;7.63;;;1.70;96.00;;;;;;6105021;23;20013;-77
2023/12/04 02:31:29;;;;;;;12.93;6.43;;;1.70;96.00;;;;;;6107676;23;20013;-78
2023/12/04 02:33:57;;;;;;;14.25;6.43;;;1.80;96.00;;;;;;6106034;23;20002;-80
2023/12/04 02:36:24;;;;;;;14.98;7.40;;;1.80;96.00;;;;;;6101561;23;20025;-80
2023/12/04 02:38:51;;;;;;;15.07;7.40;;;1.80;95.80;;;;;;6098660;23;20003;-79
2023/12/04 02:41:17;;;;;;;12.88;6.60;;;1.70;95.80;;;;;;6100463;23;20021;-80
2023/12/04 02:43:43;;;;;;;12.85;6.47;;;1.70;95.80;;;;;;6099649;23;20003;-82
2023/12/04 02:46:09;;;;;;;11.70;5.80;;;1.70;95.80;;;;;;6098727;23;20543;-79
2023/12/04 02:48:34;;;;;;;11.43;6.13;;;1.70;95.80;;;;;;6098793;23;20599;-78
2023/12/04 02:51:00;;;;;;;14.23;6.07;;;1.80;95.80;;;;;;6100941;23;20005;-82
2023/12/04 02:53:25;;;;;;;13.13;6.70;;;1.80;95.70;;;;;;6099518;23;20062;-83
2023/12/04 02:55:51;;;;;;;14.23;6.45;;;1.80;95.60;;;;;;6100576;23;20062;-80
2023/12/04 02:58:16;;;;;;;12.90;6.50;;;1.80;95.70;;;;;;6100363;23;20009;-79
2023/12/04 03:00:42;;;;;;;15.32;7.03;;;1.80;95.70;;;;;;6098989;23;20006;-80
2023/12/04 03:03:07;;;;;;;12.02;6.40;;;1.80;95.70;;;;;;6102143;23;20002;-80
2023/12/04 03:05:33;;;;;;;13.73;6.18;;;1.80;95.60;;;;;;6102384;23;20034;-80
2023/12/04 03:07:58;;;;;;;14.45;7.03;;;1.80;95.60;;;;;;6101679;23;20006;-82
2023/12/04 03:10:24;;;;;;;14.60;6.90;;;1.80;95.60;;;;;;6098547;23;20014;-79
2023/12/04 03:12:49;;;;;;;12.77;6.20;;;1.80;95.60;;;;;;6099745;23;20010;-81
2023/12/04 03:15:15;;;;;;;12.38;5.70;;;1.70;95.60;;;;;;6100792;23;20013;-80
2023/12/04 03:17:41;;;;;;;11.20;5.30;;;1.80;95.60;;;;;;6098167;23;20026;-78
2023/12/04 03:20:08;;;;;;;11.50;5.95;;;1.80;95.50;;;;;;6097333;23;20002;-81
2023/12/04 03:22:35;;;;;;;13.68;6.72;;;1.80;95.40;;;;;;6099890;23;20062;-81
2023/12/04 03:25:00;;;;;;;11.95;6.07;;;1.80;95.40;;;;;;6094999;23;20006;-80
2023/12/04 03:27:26;;;;;;;11.70;6.20;;;1.80;95.40;;;;;;6092662;23;20011;-81
2023/12/04 03:29:51;;;;;;;12.50;6.40;;;1.80;95.40;;;;;;6094055;23;20444;-80
2023/12/04 03:32:17;;;;;;;13.40;6.43;;;1.80;95.40;;;;;;6092887;23;20436;-79
2023/12/04 03:34:42;;;;;;;11.45;6.22;;;1.80;95.40;;;;;;6091062;23;20014;-79
2023/12/04 03:37:08;;;;;;;12.65;6.32;;;1.80;95.40;;;;;;6093364;23;20017;-81
2023/12/04 03:39:33;;;;;;;10.18;5.40;;;1.80;95.30;;;;;;6094369;23;19998;-79
2023/12/04 03:41:59;;;;;;;9.90;5.43;;;1.80;95.30;;;;;;6102897;23;20063;-82
2023/12/04 03:44:25;;;;;;;12.32;6.50;;;1.90;95.30;;;;;;6103314;23;20011;-80
2023/12/04 03:46:51;;;;;;;9.95;5.38;;;1.90;95.20;;;;;;6102013;23;20007;-83
2023/12/04 03:49:17;;;;;;;9.60;4.93;;;1.90;95.20;;;;;;6102228;23;20006;-79
2023/12/04 03:51:42;;;;;;;10.68;5.88;;;1.90;95.40;;;;;;6099208;23;20528;-83
2023/12/04 03:54:08;;;;;;;10.23;5.72;;;1.90;95.30;;;;;;6106039;23;19994;-80
2023/12/04 03:56:34;;;;;;;11.52;5.57;;;1.80;95.00;;;;;;6104748;23;20399;-81
2023/12/04 03:58:59;;;;;;;10.75;5.45;;;1.80;94.70;;;;;;6104435;23;20026;-81
2023/12/04 04:01:25;;;;;;;13.40;6.13;;;1.90;95.00;;;;;;6106053;23;20077;-81
2023/12/04 04:03:50;;;;;;;9.88;4.93;;;1.80;94.90;;;;;;6102557;23;20002;-82
2023/12/04 04:06:16;;;;;;;10.68;5.15;;;1.90;95.10;;;;;;6103815;23;20015;-80
2023/12/04 04:08:41;;;;;;;11.32;5.40;;;1.80;94.90;;;;;;6101728;23;20085;-81
2023/12/04 04:11:07;;;;;;;11.35;5.65;;;1.80;95.00;;;;;;6103925;23;20002;-80
2023/12/04 04:13:32;;;;;;;12.68;6.45;;;1.80;94.90;;;;;;6102127;23;20013;-81
2023/12/04 04:15:58;;;;;;;13.68;6.60;;;1.80;94.90;;;;;;6103901;23;20009;-79
2023/12/04 04:18:23;;;;;;;11.27;5.80;;;1.80;94.80;;;;;;6104880;23;19994;-81
2023/12/04 04:20:49;;;;;;;10.27;5.60;;;1.80;94.90;;;;;;6104431;23;19998;-81
2023/12/04 04:23:16;;;;;;;11.05;5.75;;;1.80;94.80;;;;;;6103118;23;20027;-80
2023/12/04 04:25:41;;;;;;;11.00;6.13;;;1.70;94.80;;;;;;6103802;23;20010;-80
2023/12/04 04:28:07;;;;;;;12.60;6.43;;;1.80;94.90;;;;;;6102514;23;20077;-80
2023/12/04 04:30:32;;;;;;;10.75;5.82;;;1.70;94.80;;;;;;6103563;23;20065;-83
2023/12/04 04:32:58;;;;;;;12.02;5.90;;;1.70;94.80;;;;;;6103728;23;20111;-78
2023/12/04 04:35:23;;;;;;;12.05;6.03;;;1.70;94.70;;;;;;6106307;23;20063;-81
2023/12/04 04:37:50;;;;;;;11.55;6.35;;;1.70;94.70;;;;;;6094693;23;20014;-81
2023/12/04 04:40:16;;;;;;;10.68;5.57;;;1.70;94.80;;;;;;6097742;23;20009;-81
2023/12/04 04:42:42;;;;;;;12.38;6.30;;;1.80;94.80;;;;;;6097238;23;20009;-82
2023/12/04 04:45:07;;;;;;;10.63;5.63;;;1.80;94.70;;;;;;6097036;23;20002;-81
2023/12/04 04:47:33;;;;;;;10.75;5.22;;;1.80;94.80;;;;;;6095130;23;20392;-83
2023/12/04 04:49:58;;;;;;;12.27;6.10;;;1.70;94.60;;;;;;6095906;23;20002;-81
2023/12/04 04:52:24;;;;;;;9.73;5.57;;;1.80;94.60;;;;;;6097174;23;20090;-82
2023/12/04 04:54:49;;;;;;;12.05;5.90;;;1.80;94.50;;;;;;6095378;23;20013;-82
2023/12/04 04:57:15;;;;;;;10.40;5.63;;;1.70;94.40;;;;;;6095952;23;20082;-82
2023/12/04 04:59:41;;;;;;;11.88;6.38;;;1.70;94.40;;;;;;6095501;23;20093;-82
2023/12/04 05:02:06;;;;;;;13.18;6.35;;;1.70;94.20;;;;;;6097125;23;20003;-80
2023/12/04 05:04:32;;;;;;;11.32;5.50;;;1.70;94.20;;;;;;6097415;23;20013;-82
2023/12/04 05:06:57;;;;;;;9.90;5.70;;;1.80;94.30;;;;;;6094343;23;20448;-80
2023/12/04 05:09:23;;;;;;;10.85;6.05;;;1.70;94.10;;;;;;6095359;23;20440;-81
2023/12/04 05:11:48;;;;;;;11.45;6.15;;;1.70;94.10;;;;;;6093432;23;20504;-82
2023/12/04 05:14:14;;;;;;;10.98;6.10;;;1.70;94.00;;;;;;6094322;23;20009;-81
2023/12/04 05:16:39;;;;;;;12.00;5.90;;;1.70;94.00;;;;;;6095803;23;20067;-82
2023/12/04 05:19:05;;;;;;;10.65;5.60;;;1.70;94.00;;;;;;6095960;23;20006;-82
2023/12/04 05:21:31;;;;;;;10.57;5.78;;;1.70;93.90;;;;;;6094660;23;20002;-82
2023/12/04 05:23:56;;;;;;;11.55;5.60;;;1.80;93.90;;;;;;6096463;23;20503;-80
2023/12/04 05:26:22;;;;;;;10.48;5.63;;;1.70;93.90;;;;;;6095084;23;20013;-82
2023/12/04 05:28:47;;;;;;;10.45;5.15;;;1.80;93.80;;;;;;6096865;23;20003;-82
2023/12/04 05:31:13;;;;;;;10.50;5.15;;;1.80;93.60;;;;;;6097431;23;20007;-81
2023/12/04 05:33:39;;;;;;;9.50;5.63;;;1.80;93.60;;;;;;6095864;23;20161;-81
2023/12/04 05:36:06;;;;;;;8.63;4.85;;;1.70;93.60;;;;;;6095967;23;20089;-82
2023/12/04 05:38:32;;;;;;;9.38;5.30;;;1.70;93.60;;;;;;6095781;23;20074;-81
2023/12/04 05:40:57;;;;;;;9.48;5.30;;;1.80;93.60;;;;;;6095596;23;20444;-81
2023/12/04 05:43:23;;;;;;;9.82;5.32;;;1.70;93.40;;;;;;6095931;23;20316;-83
2023/12/04 05:45:48;;;;;;;10.18;5.38;;;1.80;93.50;;;;;;6094626;23;20009;-83
2023/12/04 05:48:14;;;;;;;9.38;5.18;;;1.80;93.50;;;;;;6095667;23;20061;-82
2023/12/04 05:50:40;;;;;;;10.65;5.50;;;1.80;93.40;;;;;;6095177;23;20014;-82
2023/12/04 05:53:07;;;;;;;10.75;5.53;;;1.70;93.30;;;;;;6096941;23;20006;-82
2023/12/04 05:55:33;;;;;;;8.65;5.13;;;1.70;93.30;;;;;;6096230;23;20085;-82
2023/12/04 05:57:59;;;;;;;8.57;4.88;;;1.80;93.30;;;;;;6096591;23;19999;-82
2023/12/04 06:00:25;;;;;;;9.43;5.18;;;1.80;93.30;;;;;;6097154;23;20014;-81
2023/12/04 06:02:51;;;;;;;8.30;4.65;;;1.80;93.20;;;;;;6107998;23;20006;-83
2023/12/04 06:05:16;;;;;;;12.77;5.88;;;1.70;92.90;;;;;;6104703;23;20516;-83
2023/12/04 06:07:42;;;;;;;10.85;5.78;;;1.70;92.80;;;;;;6095535;23;20503;-82
2023/12/04 06:10:08;;;;;;;10.00;5.80;;;1.70;92.70;;;;;;6099699;23;20005;-84
2023/12/04 06:12:34;;;;;;;11.80;5.95;;;1.70;92.70;;;;;;6097869;23;20007;-83
2023/12/04 06:15:00;;;;;;;9.23;5.03;;;1.70;92.70;;;;;;6096508;23;20033;-84
2023/12/04 06:17:26;;;;;;;11.95;5.60;;;1.80;92.70;;;;;;6097016;23;20081;-84
2023/12/04 06:19:53;;;;;;;9.85;5.30;;;1.70;92.60;;;;;;6097249;23;20017;-83
2023/12/04 06:22:21;;;;;;;10.90;6.10;;;1.80;92.50;;;;;;6101109;23;20064;-81
2023/12/04 06:24:47;;;;;;;12.95;5.50;;;1.70;92.30;;;;;;6099122;23;20009;-84
2023/12/04 06:27:16;;;;;;;8.52;5.00;;;1.80;92.50;;;;;;6095912;23;20440;-82
2023/12/04 06:29:42;;;;;;;9.07;4.72;;;1.80;92.40;;;;;;6095724;23;20006;-83
2023/12/04 06:32:08;;;;;;;9.00;4.60;;;1.80;92.30;;;;;;6096014;23;20026;-83
2023/12/04 06:34:34;;;;;;;9.93;5.40;;;1.90;92.20;;;;;;6096635;23;20066;-82
2023/12/04 06:37:02;;;;;;;8.75;4.53;;;1.80;92.00;;;;;;6097275;23;20011;-84
2023/12/04 06:39:32;;;;;;;9.85;5.25;;;1.90;91.90;;;;;;6097079;23;20002;-83
2023/12/04 06:41:57;;;;;;;8.00;4.32;;;1.80;91.90;;;;;;6097938;23;20003;-83
2023/12/04 06:44:23;;;;;;;8.27;4.50;;;1.90;92.00;;;;;;6098083;23;20066;-82
2023/12/04 06:46:50;;;;;;;7.97;4.30;;;1.90;91.90;;;;;;6095094;23;20010;-85
2023/12/04 06:49:17;;;;;;;8.32;4.72;;;1.90;91.80;;;;;;6095521;23;20046;-85
2023/12/04 06:51:43;;;;;;;8.07;4.82;;;1.90;91.70;;;;;;6106783;23;20006;-85
2023/12/04 06:54:08;;;;;;;8.23;4.07;;;1.90;91.70;;;;;;6112059;23;20009;-86
2023/12/04 06:56:34;;;;;;;7.70;4.32;;;2.00;91.70;;;;;;6094765;23;20063;-83
2023/12/04 06:58:59;;;;;;;7.43;4.28;;;2.00;91.60;;;;;;6094330;23;20081;-84
2023/12/04 07:01:25;;;;;;;9.30;4.88;;;1.90;91.40;;;;;;6094733;23;19998;-82
2023/12/04 07:03:51;;;;;;;9.35;4.45;;;2.00;91.60;;;;;;6094353;23;20094;-83
2023/12/04 07:06:16;;;;;;;8.57;4.68;;;2.00;91.40;;;;;;6095316;23;20058;-82
2023/12/04 07:08:42;;;;;;;10.48;5.57;;;2.00;91.20;;;;;;6093417;23;19998;-84
2023/12/04 07:11:08;;;;;;;9.02;4.60;;;1.90;91.10;;;;;;6095942;23;19998;-83
2023/12/04 07:13:34;;;;;;;7.93;4.55;;;2.00;91.30;;;;;;6096672;23;20002;-83
2023/12/04 07:15:59;;;;;;;7.82;4.50;;;2.00;91.10;;;;;;6100827;23;20332;-83
2023/12/04 07:18:25;;;;;;;8.32;4.75;;;2.00;91.10;;;;;;6098600;23;20010;-82
2023/12/04 07:20:51;;;;;;;8.98;4.90;;;2.00;91.00;;;;;;6097380;23;20058;-85
2023/12/04 07:23:16;;;;;;;8.15;4.90;;;1.90;90.70;;;;;;6102917;23;20037;-86
2023/12/04 07:25:42;;;;;;;8.20;4.60;;;2.00;90.70;;;;;;6108942;23;20006;-83
2023/12/04 07:28:08;;;;;;;9.13;4.90;;;1.90;90.60;;;;;;6098478;23;20007;-82
2023/12/04 07:30:33;;;;;;;7.75;4.13;;;1.90;90.40;;;;;;6097759;23;20002;-83
2023/12/04 07:32:59;;;;;;;8.73;4.70;;;2.00;90.40;;;;;;6105266;23;20010;-83
2023/12/04 07:35:26;;;;;;;8.57;4.85;;;2.00;90.50;;;;;;6109671;23;20006;-79
2023/12/04 07:37:52;;;;;;;10.50;5.50;;;2.00;90.30;;;;;;6103693;23;20033;-84
2023/12/04 07:40:18;;;;;;;7.75;4.53;;;2.00;90.00;;;;;;6106256;23;20013;-84
2023/12/04 07:42:43;;;;;;;8.07;4.60;;;2.00;90.20;;;;;;6096044;23;20345;-82
2023/12/04 07:45:12;;;;;;;7.68;4.43;;;2.00;90.00;;;;;;6106656;23;20449;-79
2023/12/04 07:47:37;;;;;;;7.28;4.70;;;2.00;90.00;;;;;;6109032;23;20053;-80
2023/12/04 07:50:03;;;;;;;8.43;4.72;;;2.00;89.60;;;;;;6094266;23;20608;-83
2023/12/04 07:52:30;;;;;;;9.75;4.82;;;2.00;89.70;;;;;;6097272;23;20013;-84
2023/12/04 07:54:58;;;;;;;7.78;4.40;;;2.00;89.60;;;;;;6101596;23;20002;-84
2023/12/04 07:57:23;;;;;;;8.18;4.35;;;2.00;89.40;;;;;;6100743;23;20085;-84
2023/12/04 07:59:49;;;;;;;9.05;5.15;;;2.10;89.00;;;;;;6095796;23;20006;-83
2023/12/04 08:02:14;;;;;;;8.18;4.50;;;2.00;88.30;;;;;;6091222;23;20006;-80
2023/12/04 08:04:40;;;;;;;9.55;5.25;;;2.10;88.30;;;;;;6091923;23;20061;-81
2023/12/04 08:07:08;;;;;;;7.22;4.40;;;2.10;87.90;;;;;;6093168;23;20036;-82
2023/12/04 08:09:34;;;;;;;8.35;4.43;;;2.10;88.30;;;;;;6094425;23;20104;-83
2023/12/04 08:12:02;;;;;;;7.53;4.28;;;2.10;88.00;;;;;;6093047;23;20377;-81
2023/12/04 08:14:28;;;;;;;6.10;3.40;;;2.20;88.30;;;;;;6094695;23;20321;-82
2023/12/04 08:16:53;;;;;;;6.90;4.20;;;2.20;87.90;;;;;;6093756;23;20033;-81
2023/12/04 08:19:19;;;;;;;7.82;4.47;;;2.20;87.90;;;;;;6094566;23;20007;-84
2023/12/04 08:21:45;;;;;;;7.18;3.85;;;2.30;87.90;;;;;;6095657;23;20010;-81
2023/12/04 08:27:57;;;;;;;8.35;4.30;;;2.40;87.70;;;;;;6032508;23;20014;-81
2023/12/04 08:30:31;;;;;;;6.90;4.22;;;2.20;87.20;;;;;;6095982;23;20010;-83
2023/12/04 08:33:10;;;;;;;6.32;4.00;;;2.30;87.40;;;;;;6094928;23;20014;-84
2023/12/04 08:35:43;;;;;;;8.68;4.97;;;2.40;87.30;;;;;;6095967;23;20013;-83
2023/12/04 08:38:13;;;;;;;5.97;3.78;;;2.40;87.10;;;;;;6126584;23;20013;-82
2023/12/04 08:40:48;;;;;;;7.55;4.15;;;2.30;87.10;;;;;;6100420;23;20454;-83
2023/12/04 08:43:14;;;;;;;6.13;3.50;;;2.40;87.30;;;;;;6100960;23;20006;-83
2023/12/04 08:46:00;;;;;;;7.05;4.07;;;2.40;87.30;;;;;;6100220;23;20355;-83
2023/12/04 08:48:34;;;;;;;6.45;3.60;;;2.50;87.00;;;;;;6100670;23;20013;-84
2023/12/04 08:51:00;;;;;;;6.38;3.40;;;2.40;87.10;;;;;;6100202;23;20006;-82
2023/12/04 08:53:37;;;;;;;6.30;3.42;;;2.50;87.40;;;;;;6124312;23;20032;-84
2023/12/04 08:56:05;;;;;;;4.78;3.20;;;2.50;87.20;;;;;;6097009;23;20006;-83
2023/12/04 08:58:59;;;;;;;4.72;3.22;;;2.60;87.20;;;;;;6102030;23;20008;-85
2023/12/04 09:01:27;;;;;;;6.22;3.85;;;2.70;86.60;;;;;;6103057;23;20034;-84
2023/12/04 09:03:58;;;;;;;6.82;3.55;;;2.50;86.70;;;;;;6103614;23;20057;-84
2023/12/04 09:06:34;;;;;;;8.23;4.05;;;2.60;87.00;;;;;;6131361;23;20466;-85
2023/12/04 09:09:08;;;;;;;6.97;3.90;;;2.50;87.00;;;;;;6106241;23;20018;-84
2023/12/04 09:11:51;;;;;;;7.07;4.07;;;2.60;87.00;;;;;;6105414;23;20037;-80
2023/12/04 09:14:27;;;;;;;6.32;3.60;;;2.60;86.70;;;;;;6104725;23;20002;-82
2023/12/04 09:18:06;;;;;;;7.07;3.45;;;2.60;86.50;;;;;;6100730;23;20036;-83
2023/12/04 09:21:16;;;;;;;5.03;2.92;;;2.70;86.90;;;;;;6112828;23;20009;-86
2023/12/04 09:24:06;;;;;;;;;;;;;;;;;;;;;
2023/12/04 09:26:34;;;;;;;6.00;3.65;;;2.70;86.50;;;;;;6131671;23;20025;-84
2023/12/04 09:33:06;;;;;;;;;;;;;;;;;;;;;
2023/12/04 09:39:16;;;;;;;6.35;3.50;;;2.80;86.30;;;;;;6126754;23;20032;-81
2023/12/04 09:41:56;;;;;;;4.50;2.72;;;2.90;86.20;;;;;;6090147;23;20002;-80
2023/12/04 09:44:39;;;;;;;4.45;2.88;;;3.00;86.30;;;;;;6100346;23;20012;-85
2023/12/04 09:47:07;;;;;;;5.72;3.25;;;3.00;86.40;;;;;;6128910;23;20001;-82
2023/12/04 09:49:43;;;;;;;6.15;3.55;;;3.20;86.20;;;;;;6130639;23;20735;-84
2023/12/04 09:52:19;;;;;;;6.60;3.83;;;3.00;85.80;;;;;;6106280;23;20035;-85
2023/12/04 09:54:55;;;;;;;6.53;3.85;;;3.00;85.60;;;;;;6105566;23;20025;-83
2023/12/04 09:57:31;;;;;;;8.48;4.20;;;3.00;85.20;;;;;;6105348;23;20439;-81
2023/12/04 10:00:12;;;;;;;7.47;4.50;;;3.00;85.40;;;;;;6103776;23;20002;-80
2023/12/04 10:03:10;;;;;;;8.30;4.93;;;2.90;84.90;;;;;;6101930;23;20013;-81
2023/12/04 10:09:34;;;;;;;6.97;4.07;;;2.90;84.50;;;;;;6128521;23;20006;-86
2023/12/04 10:12:21;;;;;;;7.30;4.07;;;2.90;85.20;;;;;;6102551;23;20020;-83
2023/12/04 10:15:11;;;;;;;7.95;4.43;;;3.00;84.90;;;;;;6103563;23;20005;-83
2023/12/04 10:17:55;;;;;;;7.80;4.53;;;3.00;84.80;;;;;;6101565;23;20002;-84
2023/12/04 10:20:21;;;;;;;6.82;3.88;;;3.00;84.80;;;;;;6103004;23;20321;-84
2023/12/04 10:23:02;;;;;;;6.45;3.85;;;3.10;85.00;;;;;;6103321;23;20006;-84
2023/12/04 10:25:36;;;;;;;6.15;3.60;;;3.10;84.80;;;;;;6102815;23;20006;-84
2023/12/04 10:28:15;;;;;;;6.47;3.90;;;3.00;84.70;;;;;;6102012;23;20009;-81
2023/12/04 10:30:44;;;;;;;6.55;3.75;;;3.20;84.90;;;;;;6101525;23;20009;-82
2023/12/04 10:33:14;;;;;;;8.13;4.32;;;3.20;84.20;;;;;;6127848;23;20001;-82
2023/12/04 10:35:40;;;;;;;8.43;4.97;;;3.20;84.20;;;;;;6095514;23;20046;-80
2023/12/04 10:38:07;;;;;;;8.00;4.57;;;3.20;84.10;;;;;;6089018;23;20010;-82
2023/12/04 10:40:34;;;;;;;7.95;4.45;;;3.20;84.20;;;;;;6088888;23;20003;-82
2023/12/04 10:43:09;;;;;;;6.55;3.97;;;3.30;84.10;;;;;;6090785;23;20034;-81
2023/12/04 10:45:39;;;;;;;6.97;4.40;;;3.30;83.90;;;;;;6091205;23;20557;-81
2023/12/04 10:48:05;;;;;;;8.73;4.70;;;3.30;84.10;;;;;;6095508;23;20066;-82
2023/12/04 10:50:35;;;;;;;6.35;3.60;;;3.40;83.60;;;;;;6094144;23;19998;-77
2023/12/04 10:53:04;;;;;;;6.47;3.85;;;3.40;83.90;;;;;;6092477;23;20018;-80
2023/12/04 10:55:33;;;;;;;7.90;4.85;;;3.40;83.70;;;;;;6093267;23;20002;-80
2023/12/04 10:58:05;;;;;;;6.80;3.83;;;3.40;83.40;;;;;;6092836;23;20002;-83
2023/12/04 11:00:33;;;;;;;6.28;3.88;;;3.40;83.80;;;;;;6092630;23;20061;-79
2023/12/04 11:03:23;;;;;;;8.10;4.80;;;3.40;83.70;;;;;;6087597;23;20053;-81
2023/12/04 11:05:54;;;;;;;7.18;4.20;;;3.40;83.60;;;;;;6078342;23;20364;-81
2023/12/04 11:08:22;;;;;;;8.38;4.60;;;3.50;83.70;;;;;;6090546;23;20364;-80
2023/12/04 11:11:03;;;;;;;8.30;5.00;;;3.50;82.70;;;;;;6090992;23;20085;-79
2023/12/04 11:13:31;;;;;;;7.63;4.35;;;3.50;82.70;;;;;;6084409;23;20045;-81
2023/12/04 11:16:02;;;;;;;5.97;3.63;;;3.50;83.10;;;;;;6089351;23;20002;-81
2023/12/04 11:18:31;;;;;;;7.10;4.05;;;3.60;82.50;;;;;;6089412;23;20077;-80
2023/12/04 11:21:03;;;;;;;7.78;4.85;;;3.50;82.80;;;;;;6090743;23;19999;-79
2023/12/04 11:23:31;;;;;;;7.82;4.22;;;3.50;82.30;;;;;;6092245;23;20014;-80
2023/12/04 11:25:58;;;;;;;8.00;4.40;;;3.60;82.40;;;;;;6089479;23;20006;-82
2023/12/04 11:28:25;;;;;;;6.55;3.65;;;3.60;82.50;;;;;;6088367;23;20002;-79
2023/12/04 11:30:51;;;;;;;7.20;4.28;;;3.60;82.00;;;;;;6089540;23;20013;-81
2023/12/04 11:33:17;;;;;;;6.47;4.00;;;3.60;83.00;;;;;;6093986;23;20095;-79
2023/12/04 11:35:44;;;;;;;8.02;4.63;;;3.50;82.00;;;;;;6089926;23;20013;-80
2023/12/04 11:38:13;;;;;;;8.73;4.90;;;3.40;81.40;;;;;;6092557;23;20026;-81
2023/12/04 11:40:42;;;;;;;6.85;4.10;;;3.40;81.20;;;;;;6067804;23;20033;-81
2023/12/04 11:43:26;;;;;;;9.68;5.50;;;3.40;81.60;;;;;;6094059;23;20007;-79
2023/12/04 11:45:52;;;;;;;8.73;4.78;;;3.40;81.20;;;;;;6072843;23;20013;-81
2023/12/04 11:48:23;;;;;;;7.72;4.63;;;3.30;81.00;;;;;;6099586;23;20586;-80
2023/12/04 11:50:50;;;;;;;8.30;4.93;;;3.40;81.40;;;;;;6094065;23;20006;-80
2023/12/04 11:53:16;;;;;;;9.00;4.43;;;3.40;80.80;;;;;;6097176;23;20011;-78
2023/12/04 11:55:41;;;;;;;7.95;4.30;;;3.40;81.10;;;;;;6068414;23;20021;-81
2023/12/04 11:58:11;;;;;;;6.90;3.85;;;3.50;80.80;;;;;;6096489;23;20077;-78
2023/12/04 12:00:37;;;;;;;7.97;4.70;;;3.40;81.00;;;;;;6097001;23;19999;-81
2023/12/04 12:03:09;;;;;;;7.38;4.28;;;3.50;80.10;;;;;;6073509;23;20062;-82
2023/12/04 12:05:38;;;;;;;5.93;4.10;;;3.40;80.90;;;;;;6095246;23;20006;-80
2023/12/04 12:08:05;;;;;;;6.97;4.20;;;3.50;80.70;;;;;;6069141;23;20087;-79
2023/12/04 12:10:31;;;;;;;7.50;4.10;;;3.50;81.00;;;;;;6067933;23;20038;-77
2023/12/04 12:12:58;;;;;;;8.50;4.60;;;3.50;80.50;;;;;;6089576;23;20002;-80
2023/12/04 12:15:24;;;;;;;7.93;4.57;;;3.60;80.60;;;;;;6089173;23;20007;-80
2023/12/04 12:17:51;;;;;;;7.90;4.90;;;3.60;80.70;;;;;;6090298;23;20038;-80
2023/12/04 12:20:17;;;;;;;8.85;5.07;;;3.50;80.00;;;;;;6090447;23;20089;-79
2023/12/04 12:22:46;;;;;;;6.30;4.10;;;3.60;80.50;;;;;;6064217;23;20045;-77
2023/12/04 12:25:11;;;;;;;5.88;3.75;;;3.60;80.40;;;;;;6088075;23;20013;-80
2023/12/04 12:27:38;;;;;;;6.72;3.72;;;3.60;80.30;;;;;;6089001;23;20006;-79
2023/12/04 12:30:04;;;;;;;8.77;5.22;;;3.60;80.20;;;;;;6061852;23;20426;-78
2023/12/04 12:32:34;;;;;;;7.15;4.30;;;3.60;79.80;;;;;;6089519;23;20101;-79
2023/12/04 12:35:00;;;;;;;8.25;4.80;;;3.60;80.10;;;;;;6064979;23;20523;-79
2023/12/04 12:37:25;;;;;;;8.65;4.72;;;3.60;80.20;;;;;;6089692;23;20007;-79
2023/12/04 12:39:54;;;;;;;8.15;4.40;;;3.50;79.90;;;;;;6062272;23;20002;-78
2023/12/04 12:42:27;;;;;;;5.90;3.55;;;3.60;80.50;;;;;;6089028;23;20395;-78
2023/12/04 12:44:53;;;;;;;6.97;4.43;;;3.70;80.60;;;;;;6088930;23;20006;-79
2023/12/04 12:47:19;;;;;;;7.25;4.40;;;3.70;79.90;;;;;;6089719;23;20013;-80
2023/12/04 12:49:45;;;;;;;8.32;4.95;;;3.60;80.10;;;;;;6063112;23;20017;-80
2023/12/04 12:52:11;;;;;;;6.78;3.95;;;3.60;79.80;;;;;;6090416;23;20073;-80
2023/12/04 12:54:38;;;;;;;7.05;4.07;;;3.60;80.40;;;;;;6094067;23;20022;-79
2023/12/04 12:57:04;;;;;;;6.85;4.18;;;3.60;80.40;;;;;;6073067;23;20348;-82
2023/12/04 12:59:30;;;;;;;7.80;3.90;;;3.60;80.40;;;;;;6069152;23;20034;-82
2023/12/04 13:01:56;;;;;;;9.20;4.60;;;3.60;80.60;;;;;;6065448;23;20014;-79
2023/12/04 13:04:22;;;;;;;6.85;4.22;;;3.60;80.30;;;;;;6064537;23;20818;-80
2023/12/04 13:06:48;;;;;;;6.32;3.92;;;3.50;80.20;;;;;;6089682;23;20010;-81
2023/12/04 13:09:18;;;;;;;7.07;4.18;;;3.60;80.50;;;;;;6090135;23;20095;-79
2023/12/04 13:11:48;;;;;;;6.15;3.92;;;3.60;80.40;;;;;;6065617;23;20006;-81
2023/12/04 13:14:14;;;;;;;7.40;4.25;;;3.70;80.50;;;;;;6069238;23;20018;-82